An Ze Jiang — BOAT — position and weather

sailwx.info

Track history (hours):
 
Tides and Currents Weather Stations Pressure Air Temp Water Temp Dewpoint Dewpoint Depression Visibility Wind Speed Wind Dir Waves Ship Positions

An Ze Jiang

Last reported at 2014-Aug-27 05:15 UTC. Time now 2017-Sep-22 02:50 UTC.
Position N 37°36' E 122°27'.
Warning: this ship's position is years out of date!

Length 149 m; draft 5.4 m.

Type: Cargo ship. MMSI: 412058000.

Date/timePositionNaut miles runAvg speedWind from/ knotsBaromVisibWave heightAir tempDewpointWater temp
2014-Aug-27 05:15N 37°36' E 122°27'1415.0
2014-Aug-27 04:20N 37°39' E 122°10'3 3.7
2014-Aug-27 03:32N 37°37' E 122°12'8 3.7
2014-Aug-27 01:28N 37°31' E 122°18'0 0.0
2014-Aug-26 18:27N 37°31' E 122°18'0 0.0
2014-Aug-26 16:20N 37°31' E 122°18'0 0.0
2014-Aug-26 15:25N 37°31' E 122°18'0 0.0
2014-Aug-26 12:17N 37°31' E 122°18'0 0.0
2014-Aug-26 11:22N 37°31' E 122°18'0 0.0
2014-Aug-26 09:15N 37°31' E 122°18'0 0.1
2014-Aug-26 08:32N 37°31' E 122°18'0 0.0
2014-Aug-26 07:20N 37°31' E 122°18'0 0.1
2014-Aug-26 06:31N 37°31' E 122°18'0 0.0
2014-Aug-26 04:30N 37°31' E 122°18'0 0.0
2014-Aug-26 03:17N 37°31' E 122°18'0 0.2
2014-Aug-26 02:23N 37°31' E 122°18'5 5.5
2014-Aug-26 01:33N 37°35' E 122°14'3 3.3
2014-Aug-26 00:33N 37°37' E 122°12'6 6.4
2014-Aug-25 23:33N 37°32' E 122°16'1 0.8
2014-Aug-25 22:27N 37°32' E 122°15'0 0.5
2014-Aug-25 21:33N 37°32' E 122°15'  
Track history (hours):
 
Tides and Currents Weather Stations Pressure Air Temp Water Temp Dewpoint Dewpoint Depression Visibility Wind Speed Wind Dir Waves Ship Positions

An Ze Jiang

Last reported at 2014-Aug-27 05:15 UTC. Time now 2017-Sep-22 02:50 UTC.
Position N 37°36' E 122°27'.
Warning: this ship's position is years out of date!

Length 149 m; draft 5.4 m.

Type: Cargo ship. MMSI: 412058000.

Date/timePositionNaut miles runAvg speedWind from/ knotsBaromVisibWave heightAir tempDewpointWater temp
2014-Aug-27 05:15N 37°36' E 122°27'1415.0
2014-Aug-27 04:20N 37°39' E 122°10'3 3.7
2014-Aug-27 03:32N 37°37' E 122°12'8 3.7
2014-Aug-27 01:28N 37°31' E 122°18'0 0.0
2014-Aug-26 18:27N 37°31' E 122°18'0 0.0
2014-Aug-26 16:20N 37°31' E 122°18'0 0.0
2014-Aug-26 15:25N 37°31' E 122°18'0 0.0
2014-Aug-26 12:17N 37°31' E 122°18'0 0.0
2014-Aug-26 11:22N 37°31' E 122°18'0 0.0
2014-Aug-26 09:15N 37°31' E 122°18'0 0.1
2014-Aug-26 08:32N 37°31' E 122°18'0 0.0
2014-Aug-26 07:20N 37°31' E 122°18'0 0.1
2014-Aug-26 06:31N 37°31' E 122°18'0 0.0
2014-Aug-26 04:30N 37°31' E 122°18'0 0.0
2014-Aug-26 03:17N 37°31' E 122°18'0 0.2
2014-Aug-26 02:23N 37°31' E 122°18'5 5.5
2014-Aug-26 01:33N 37°35' E 122°14'3 3.3
2014-Aug-26 00:33N 37°37' E 122°12'6 6.4
2014-Aug-25 23:33N 37°32' E 122°16'1 0.8
2014-Aug-25 22:27N 37°32' E 122°15'0 0.5
2014-Aug-25 21:33N 37°32' E 122°15'  

Dump ship's entire track history